SHT22A EGLL-EGJB
Flight info
| Callsign | SHT22A |
|---|---|
| Flight time | 0h 45m |
| Altitude | 22000 |
| Route | GASGU N866 SAM N63 LELNA |
| Aircraft | A319/M-SDE3FGHIRWY/LB1 |
Departure
| Time | 2026-04-20 17:45 |
|---|---|
| Airport | London Heathrow Airport (EGLL) |
Arrival
| Time | 2026-04-20 18:31 |
|---|---|
| Airport | Guernsey Airport (EGJB) |
| Time | Latitude | Longitude | Altitude | Speed | Heading |
|---|---|---|---|---|---|
| 2026-04-20 17:05 | 51.47409 | -0.48829 | 90 ft | 0 kts | 180° |
| 2026-04-20 17:28 | 51.47410 | -0.48829 | 90 ft | 0 kts | 180° |
| 2026-04-20 17:28 | 51.47423 | -0.48829 | 89 ft | 3 kts | 178° |
| 2026-04-20 17:29 | 51.47443 | -0.48831 | 89 ft | 3 kts | 173° |
| 2026-04-20 17:29 | 51.47463 | -0.48837 | 89 ft | 3 kts | 161° |
| 2026-04-20 17:29 | 51.47480 | -0.48850 | 90 ft | 3 kts | 132° |
| 2026-04-20 17:29 | 51.47487 | -0.48867 | 89 ft | 1 kts | 95° |
| 2026-04-20 17:30 | 51.47487 | -0.48869 | 89 ft | 0 kts | 95° |
| 2026-04-20 17:32 | 51.47487 | -0.48867 | 89 ft | 1 kts | 95° |
| 2026-04-20 17:32 | 51.47484 | -0.48819 | 89 ft | 7 kts | 95° |
| 2026-04-20 17:32 | 51.47484 | -0.48719 | 89 ft | 11 kts | 83° |
| 2026-04-20 17:32 | 51.47487 | -0.48594 | 91 ft | 12 kts | 89° |
| 2026-04-20 17:33 | 51.47489 | -0.48444 | 91 ft | 13 kts | 89° |
| 2026-04-20 17:33 | 51.47414 | -0.48359 | 89 ft | 17 kts | 178° |
| 2026-04-20 17:33 | 51.47307 | -0.48359 | 88 ft | 16 kts | 180° |
| 2026-04-20 17:33 | 51.47214 | -0.48357 | 87 ft | 13 kts | 179° |
| 2026-04-20 17:34 | 51.47143 | -0.48356 | 88 ft | 10 kts | 179° |
| 2026-04-20 17:34 | 51.47069 | -0.48354 | 89 ft | 10 kts | 179° |
| 2026-04-20 17:34 | 51.46994 | -0.48354 | 89 ft | 12 kts | 179° |
| 2026-04-20 17:34 | 51.46917 | -0.48354 | 90 ft | 12 kts | 180° |
| 2026-04-20 17:35 | 51.46855 | -0.48353 | 91 ft | 7 kts | 180° |
| 2026-04-20 17:35 | 51.46827 | -0.48353 | 92 ft | 2 kts | 180° |
| 2026-04-20 17:35 | 51.46826 | -0.48353 | 92 ft | 0 kts | 180° |
| 2026-04-20 17:36 | 51.46808 | -0.48354 | 92 ft | 4 kts | 180° |
| 2026-04-20 17:36 | 51.46776 | -0.48354 | 93 ft | 5 kts | 180° |
| 2026-04-20 17:36 | 51.46749 | -0.48375 | 96 ft | 5 kts | 231° |
| 2026-04-20 17:36 | 51.46739 | -0.48454 | 93 ft | 9 kts | 246° |
| 2026-04-20 17:37 | 51.46705 | -0.48468 | 93 ft | 5 kts | 178° |
| 2026-04-20 17:37 | 51.46666 | -0.48467 | 94 ft | 4 kts | 179° |
| 2026-04-20 17:37 | 51.46652 | -0.48467 | 95 ft | 2 kts | 180° |
| 2026-04-20 17:37 | 51.46625 | -0.48467 | 95 ft | 5 kts | 181° |
| 2026-04-20 17:38 | 51.46596 | -0.48468 | 96 ft | 0 kts | 180° |
| 2026-04-20 17:43 | 51.46594 | -0.48468 | 96 ft | 1 kts | 180° |
| 2026-04-20 17:43 | 51.46556 | -0.48468 | 96 ft | 8 kts | 180° |
| 2026-04-20 17:44 | 51.46486 | -0.48458 | 95 ft | 12 kts | 149° |
| 2026-04-20 17:44 | 51.46480 | -0.48299 | 94 ft | 27 kts | 88° |
| 2026-04-20 17:44 | 51.46481 | -0.47653 | 88 ft | 87 kts | 90° |
| 2026-04-20 17:44 | 51.46486 | -0.46376 | 94 ft | 140 kts | 90° |
| 2026-04-20 17:45 | 51.46471 | -0.44721 | 596 ft | 147 kts | 90° |
| 2026-04-20 17:45 | 51.46476 | -0.43060 | 1278 ft | 148 kts | 86° |
| 2026-04-20 17:45 | 51.46311 | -0.41315 | 1650 ft | 178 kts | 112° |
| 2026-04-20 17:45 | 51.45481 | -0.39604 | 2001 ft | 210 kts | 126° |
| 2026-04-20 17:46 | 51.44571 | -0.37604 | 2573 ft | 232 kts | 119° |
| 2026-04-20 17:46 | 51.43666 | -0.35333 | 3352 ft | 249 kts | 121° |
| 2026-04-20 17:46 | 51.42380 | -0.33379 | 4341 ft | 264 kts | 147° |
| 2026-04-20 17:46 | 51.40593 | -0.32555 | 5415 ft | 275 kts | 176° |
| 2026-04-20 17:47 | 51.38711 | -0.33172 | 6486 ft | 282 kts | 205° |
| 2026-04-20 17:47 | 51.37145 | -0.35030 | 7455 ft | 286 kts | 224° |
| 2026-04-20 17:47 | 51.35671 | -0.37202 | 8477 ft | 288 kts | 225° |
| 2026-04-20 17:47 | 51.34183 | -0.39385 | 9491 ft | 291 kts | 224° |
| 2026-04-20 17:48 | 51.32683 | -0.41579 | 10469 ft | 296 kts | 225° |
| 2026-04-20 17:48 | 51.31270 | -0.44122 | 10792 ft | 317 kts | 238° |
| 2026-04-20 17:48 | 51.30156 | -0.47276 | 11200 ft | 333 kts | 249° |
| 2026-04-20 17:48 | 51.29364 | -0.50780 | 11943 ft | 337 kts | 254° |
| 2026-04-20 17:49 | 51.28672 | -0.54370 | 12786 ft | 339 kts | 256° |
| 2026-04-20 17:49 | 51.28022 | -0.58007 | 13627 ft | 342 kts | 256° |
| 2026-04-20 17:49 | 51.27362 | -0.61671 | 14410 ft | 344 kts | 256° |
| 2026-04-20 17:49 | 51.26677 | -0.65341 | 15161 ft | 346 kts | 256° |
| 2026-04-20 17:50 | 51.25969 | -0.69031 | 15918 ft | 348 kts | 256° |
| 2026-04-20 17:50 | 51.25249 | -0.72723 | 16679 ft | 350 kts | 256° |
| 2026-04-20 17:50 | 51.24521 | -0.76438 | 17428 ft | 351 kts | 257° |
| 2026-04-20 17:50 | 51.23788 | -0.80169 | 18179 ft | 353 kts | 257° |
| 2026-04-20 17:51 | 51.23048 | -0.83924 | 18881 ft | 355 kts | 257° |
| 2026-04-20 17:51 | 51.22305 | -0.87690 | 19558 ft | 357 kts | 257° |
| 2026-04-20 17:51 | 51.21565 | -0.91418 | 20239 ft | 358 kts | 257° |
| 2026-04-20 17:51 | 51.20544 | -0.95091 | 20869 ft | 367 kts | 246° |
| 2026-04-20 17:52 | 51.19069 | -0.98452 | 21167 ft | 374 kts | 235° |
| 2026-04-20 17:52 | 51.17221 | -1.01409 | 21241 ft | 379 kts | 230° |
| 2026-04-20 17:52 | 51.15311 | -1.04324 | 21247 ft | 380 kts | 230° |
| 2026-04-20 17:52 | 51.13399 | -1.07229 | 21247 ft | 380 kts | 230° |
| 2026-04-20 17:53 | 51.11487 | -1.10134 | 21245 ft | 380 kts | 230° |
| 2026-04-20 17:53 | 51.09577 | -1.13047 | 21244 ft | 380 kts | 230° |
| 2026-04-20 17:53 | 51.07674 | -1.15959 | 21244 ft | 380 kts | 230° |
| 2026-04-20 17:53 | 51.05769 | -1.18876 | 21244 ft | 380 kts | 230° |
| 2026-04-20 17:54 | 51.03868 | -1.21788 | 21245 ft | 380 kts | 230° |
| 2026-04-20 17:54 | 51.01964 | -1.24702 | 21247 ft | 380 kts | 230° |
| 2026-04-20 17:54 | 51.00055 | -1.27616 | 21247 ft | 380 kts | 230° |
| 2026-04-20 17:54 | 50.98145 | -1.30526 | 21247 ft | 380 kts | 230° |
| 2026-04-20 17:55 | 50.96201 | -1.33372 | 21246 ft | 384 kts | 225° |
| 2026-04-20 17:55 | 50.93960 | -1.35755 | 21248 ft | 392 kts | 215° |
| 2026-04-20 17:55 | 50.91515 | -1.37709 | 21248 ft | 394 kts | 213° |
| 2026-04-20 17:55 | 50.89069 | -1.39656 | 21250 ft | 393 kts | 213° |
| 2026-04-20 17:56 | 50.86626 | -1.41608 | 21224 ft | 393 kts | 213° |
| 2026-04-20 17:56 | 50.84188 | -1.43558 | 21235 ft | 393 kts | 213° |
| 2026-04-20 17:56 | 50.81777 | -1.45482 | 21242 ft | 392 kts | 213° |
| 2026-04-20 17:56 | 50.79341 | -1.47420 | 21246 ft | 392 kts | 213° |
| 2026-04-20 17:57 | 50.76897 | -1.49357 | 21247 ft | 392 kts | 213° |
| 2026-04-20 17:57 | 50.74463 | -1.51284 | 21248 ft | 392 kts | 213° |
| 2026-04-20 17:57 | 50.72027 | -1.53213 | 21254 ft | 392 kts | 213° |
| 2026-04-20 17:57 | 50.69588 | -1.55141 | 21252 ft | 392 kts | 213° |
| 2026-04-20 17:58 | 50.67156 | -1.57063 | 21253 ft | 392 kts | 213° |
| 2026-04-20 17:58 | 50.64716 | -1.58995 | 21250 ft | 391 kts | 213° |
| 2026-04-20 17:58 | 50.62308 | -1.60903 | 21229 ft | 391 kts | 212° |
| 2026-04-20 17:58 | 50.59876 | -1.62826 | 21235 ft | 391 kts | 212° |
| 2026-04-20 17:59 | 50.57444 | -1.64742 | 21241 ft | 391 kts | 212° |
| 2026-04-20 17:59 | 50.55016 | -1.66648 | 21242 ft | 390 kts | 212° |
| 2026-04-20 17:59 | 50.52585 | -1.68554 | 21244 ft | 390 kts | 212° |
| 2026-04-20 17:59 | 50.50150 | -1.70458 | 21243 ft | 390 kts | 212° |
| 2026-04-20 18:00 | 50.47717 | -1.72362 | 21242 ft | 390 kts | 212° |
| 2026-04-20 18:00 | 50.45284 | -1.74264 | 21242 ft | 390 kts | 212° |
| 2026-04-20 18:00 | 50.42855 | -1.76165 | 21242 ft | 390 kts | 212° |
| 2026-04-20 18:00 | 50.40428 | -1.78065 | 21224 ft | 390 kts | 212° |
| 2026-04-20 18:01 | 50.37990 | -1.79969 | 21229 ft | 390 kts | 212° |
| 2026-04-20 18:01 | 50.35589 | -1.81841 | 21234 ft | 390 kts | 212° |
| 2026-04-20 18:01 | 50.33162 | -1.83729 | 21237 ft | 389 kts | 212° |
| 2026-04-20 18:01 | 50.30736 | -1.85615 | 21224 ft | 389 kts | 212° |
| 2026-04-20 18:02 | 50.28311 | -1.87496 | 21229 ft | 389 kts | 212° |
| 2026-04-20 18:02 | 50.25877 | -1.89381 | 21232 ft | 389 kts | 212° |
| 2026-04-20 18:02 | 50.23454 | -1.91255 | 21237 ft | 389 kts | 212° |
| 2026-04-20 18:02 | 50.21030 | -1.93127 | 21231 ft | 388 kts | 212° |
| 2026-04-20 18:03 | 50.18606 | -1.94997 | 21229 ft | 388 kts | 212° |
| 2026-04-20 18:03 | 50.16217 | -1.96842 | 21216 ft | 388 kts | 212° |
| 2026-04-20 18:03 | 50.13790 | -1.98714 | 21219 ft | 388 kts | 212° |
| 2026-04-20 18:03 | 50.11366 | -2.00579 | 21219 ft | 388 kts | 212° |
| 2026-04-20 18:04 | 50.08942 | -2.02441 | 21221 ft | 388 kts | 212° |
| 2026-04-20 18:04 | 50.06516 | -2.04306 | 21223 ft | 388 kts | 212° |
| 2026-04-20 18:04 | 50.04095 | -2.06165 | 21219 ft | 388 kts | 212° |
| 2026-04-20 18:04 | 50.01675 | -2.08020 | 21219 ft | 388 kts | 212° |
| 2026-04-20 18:05 | 49.97239 | -2.12559 | 21218 ft | 377 kts | 229° |
| 2026-04-20 18:05 | 49.95465 | -2.15538 | 21224 ft | 374 kts | 233° |
| 2026-04-20 18:05 | 49.93771 | -2.18523 | 20833 ft | 370 kts | 232° |
| 2026-04-20 18:06 | 49.92045 | -2.21544 | 19679 ft | 375 kts | 232° |
| 2026-04-20 18:06 | 49.90226 | -2.24383 | 18895 ft | 371 kts | 223° |
| 2026-04-20 18:06 | 49.88215 | -2.26885 | 17875 ft | 369 kts | 222° |
| 2026-04-20 18:06 | 49.86209 | -2.29366 | 16827 ft | 367 kts | 222° |
| 2026-04-20 18:07 | 49.84218 | -2.31823 | 15816 ft | 364 kts | 223° |
| 2026-04-20 18:07 | 49.82254 | -2.34241 | 15000 ft | 357 kts | 220° |
| 2026-04-20 18:07 | 49.80348 | -2.36579 | 14480 ft | 342 kts | 221° |
| 2026-04-20 18:07 | 49.78509 | -2.38833 | 13982 ft | 335 kts | 222° |
| 2026-04-20 18:08 | 49.76696 | -2.41062 | 13443 ft | 331 kts | 222° |
| 2026-04-20 18:08 | 49.74900 | -2.43270 | 12950 ft | 327 kts | 220° |
| 2026-04-20 18:08 | 49.73146 | -2.45429 | 12467 ft | 325 kts | 221° |
| 2026-04-20 18:08 | 49.71382 | -2.47598 | 11979 ft | 322 kts | 221° |
| 2026-04-20 18:09 | 49.69630 | -2.49744 | 11497 ft | 320 kts | 220° |
| 2026-04-20 18:09 | 49.67884 | -2.51877 | 11020 ft | 318 kts | 220° |
| 2026-04-20 18:09 | 49.66153 | -2.53994 | 10650 ft | 313 kts | 219° |
| 2026-04-20 18:09 | 49.64497 | -2.56016 | 10493 ft | 299 kts | 219° |
| 2026-04-20 18:10 | 49.62896 | -2.57971 | 10059 ft | 291 kts | 219° |
| 2026-04-20 18:10 | 49.61328 | -2.59888 | 9884 ft | 287 kts | 219° |
| 2026-04-20 18:10 | 49.59758 | -2.61800 | 9752 ft | 287 kts | 219° |
| 2026-04-20 18:10 | 49.58187 | -2.63710 | 9609 ft | 287 kts | 219° |
| 2026-04-20 18:11 | 49.56612 | -2.65624 | 9039 ft | 287 kts | 219° |
| 2026-04-20 18:11 | 49.55078 | -2.67575 | 8471 ft | 284 kts | 226° |
| 2026-04-20 18:11 | 49.53935 | -2.70030 | 7909 ft | 283 kts | 239° |
| 2026-04-20 18:11 | 49.52941 | -2.72633 | 7339 ft | 282 kts | 240° |
| 2026-04-20 18:12 | 49.52294 | -2.74369 | 6959 ft | 281 kts | 240° |
| 2026-04-20 18:12 | 49.51328 | -2.76987 | 6381 ft | 281 kts | 240° |
| 2026-04-20 18:12 | 49.50369 | -2.79617 | 5791 ft | 285 kts | 241° |
| 2026-04-20 18:12 | 49.49398 | -2.82325 | 5212 ft | 293 kts | 240° |
| 2026-04-20 18:13 | 49.48414 | -2.85133 | 4625 ft | 300 kts | 240° |
| 2026-04-20 18:13 | 49.47426 | -2.87956 | 4011 ft | 298 kts | 240° |
| 2026-04-20 18:13 | 49.46302 | -2.90536 | 3427 ft | 289 kts | 220° |
| 2026-04-20 18:13 | 49.44646 | -2.92109 | 2836 ft | 276 kts | 193° |
| 2026-04-20 18:14 | 49.42804 | -2.92308 | 2238 ft | 260 kts | 162° |
| 2026-04-20 18:14 | 49.41292 | -2.91136 | 2034 ft | 230 kts | 130° |
| 2026-04-20 18:14 | 49.40572 | -2.89192 | 2020 ft | 195 kts | 96° |
| 2026-04-20 18:14 | 49.40800 | -2.87347 | 2046 ft | 170 kts | 58° |
| 2026-04-20 18:15 | 49.41472 | -2.85998 | 2022 ft | 151 kts | 59° |
| 2026-04-20 18:15 | 49.42006 | -2.84724 | 2021 ft | 132 kts | 59° |
| 2026-04-20 18:15 | 49.42401 | -2.83508 | 2021 ft | 125 kts | 70° |
| 2026-04-20 18:15 | 49.42631 | -2.82240 | 2031 ft | 121 kts | 77° |
| 2026-04-20 18:16 | 49.42772 | -2.80965 | 2016 ft | 121 kts | 81° |
| 2026-04-20 18:16 | 49.42866 | -2.79689 | 2027 ft | 119 kts | 83° |
| 2026-04-20 18:16 | 49.42934 | -2.78416 | 2022 ft | 120 kts | 84° |
| 2026-04-20 18:16 | 49.42988 | -2.77156 | 2018 ft | 119 kts | 84° |
| 2026-04-20 18:17 | 49.43033 | -2.75937 | 2007 ft | 110 kts | 85° |
| 2026-04-20 18:17 | 49.43072 | -2.74770 | 1963 ft | 109 kts | 85° |
| 2026-04-20 18:17 | 49.43109 | -2.73609 | 1873 ft | 108 kts | 85° |
| 2026-04-20 18:17 | 49.43143 | -2.72459 | 1756 ft | 107 kts | 84° |
| 2026-04-20 18:18 | 49.43175 | -2.71364 | 1557 ft | 100 kts | 84° |
| 2026-04-20 18:18 | 49.43202 | -2.70094 | 1581 ft | 129 kts | 86° |
| 2026-04-20 18:18 | 49.43231 | -2.68672 | 1863 ft | 134 kts | 86° |
| 2026-04-20 18:18 | 49.43272 | -2.67348 | 2363 ft | 122 kts | 84° |
| 2026-04-20 18:19 | 49.43337 | -2.66008 | 2770 ft | 130 kts | 85° |
| 2026-04-20 18:19 | 49.43415 | -2.64576 | 3071 ft | 142 kts | 85° |
| 2026-04-20 18:19 | 49.43515 | -2.62888 | 3070 ft | 174 kts | 85° |
| 2026-04-20 18:19 | 49.43630 | -2.61005 | 2937 ft | 182 kts | 84° |
| 2026-04-20 18:20 | 49.43740 | -2.59065 | 2885 ft | 182 kts | 85° |
| 2026-04-20 18:20 | 49.43824 | -2.57102 | 2960 ft | 186 kts | 94° |
| 2026-04-20 18:20 | 49.43287 | -2.55316 | 2991 ft | 190 kts | 132° |
| 2026-04-20 18:20 | 49.42068 | -2.54429 | 3001 ft | 204 kts | 169° |
| 2026-04-20 18:21 | 49.40656 | -2.54892 | 3005 ft | 217 kts | 206° |
| 2026-04-20 18:21 | 49.39469 | -2.56331 | 3016 ft | 222 kts | 218° |
| 2026-04-20 18:21 | 49.38350 | -2.57960 | 3012 ft | 222 kts | 220° |
| 2026-04-20 18:21 | 49.37247 | -2.59621 | 3004 ft | 224 kts | 220° |
| 2026-04-20 18:22 | 49.36176 | -2.61353 | 3001 ft | 226 kts | 231° |
| 2026-04-20 18:22 | 49.35653 | -2.63619 | 3018 ft | 231 kts | 264° |
| 2026-04-20 18:22 | 49.35572 | -2.66069 | 3009 ft | 226 kts | 270° |
| 2026-04-20 18:22 | 49.35558 | -2.68441 | 3044 ft | 221 kts | 271° |
| 2026-04-20 18:23 | 49.35549 | -2.70812 | 3000 ft | 223 kts | 271° |
| 2026-04-20 18:23 | 49.35536 | -2.73194 | 3007 ft | 225 kts | 270° |
| 2026-04-20 18:23 | 49.35525 | -2.75573 | 3011 ft | 221 kts | 270° |
| 2026-04-20 18:23 | 49.35515 | -2.77908 | 2999 ft | 214 kts | 271° |
| 2026-04-20 18:24 | 49.35504 | -2.80134 | 2760 ft | 206 kts | 270° |
| 2026-04-20 18:24 | 49.35515 | -2.82327 | 2462 ft | 201 kts | 274° |
| 2026-04-20 18:24 | 49.35960 | -2.84208 | 2281 ft | 181 kts | 317° |
| 2026-04-20 18:24 | 49.36952 | -2.85095 | 2090 ft | 162 kts | 353° |
| 2026-04-20 18:25 | 49.38050 | -2.85429 | 2027 ft | 160 kts | 0° |
| 2026-04-20 18:25 | 49.39150 | -2.85713 | 2028 ft | 160 kts | 0° |
| 2026-04-20 18:25 | 49.40248 | -2.85992 | 2030 ft | 159 kts | 1° |
| 2026-04-20 18:25 | 49.41249 | -2.85664 | 2018 ft | 143 kts | 44° |
| 2026-04-20 18:26 | 49.41894 | -2.84537 | 2033 ft | 141 kts | 58° |
| 2026-04-20 18:26 | 49.42445 | -2.83288 | 2036 ft | 141 kts | 60° |
| 2026-04-20 18:26 | 49.42863 | -2.81964 | 2017 ft | 137 kts | 83° |
| 2026-04-20 18:26 | 49.42871 | -2.80508 | 2011 ft | 136 kts | 85° |
| 2026-04-20 18:27 | 49.42934 | -2.79056 | 2018 ft | 132 kts | 85° |
| 2026-04-20 18:27 | 49.42983 | -2.77704 | 2010 ft | 126 kts | 86° |
| 2026-04-20 18:27 | 49.43027 | -2.76371 | 2008 ft | 122 kts | 86° |
| 2026-04-20 18:27 | 49.43066 | -2.75129 | 1989 ft | 114 kts | 86° |
| 2026-04-20 18:28 | 49.43103 | -2.73927 | 1900 ft | 111 kts | 86° |
| 2026-04-20 18:28 | 49.43138 | -2.72744 | 1774 ft | 110 kts | 86° |
| 2026-04-20 18:28 | 49.43172 | -2.71570 | 1645 ft | 109 kts | 86° |
| 2026-04-20 18:28 | 49.43204 | -2.70394 | 1506 ft | 109 kts | 86° |
| 2026-04-20 18:29 | 49.43236 | -2.69244 | 1375 ft | 108 kts | 86° |
| 2026-04-20 18:29 | 49.43270 | -2.68085 | 1194 ft | 110 kts | 86° |
| 2026-04-20 18:29 | 49.43312 | -2.66901 | 1081 ft | 110 kts | 85° |
| 2026-04-20 18:29 | 49.43341 | -2.65730 | 912 ft | 110 kts | 85° |
| 2026-04-20 18:30 | 49.43376 | -2.64520 | 728 ft | 114 kts | 85° |
| 2026-04-20 18:30 | 49.43413 | -2.63285 | 591 ft | 116 kts | 86° |
| 2026-04-20 18:30 | 49.43448 | -2.62025 | 425 ft | 119 kts | 84° |
| 2026-04-20 18:30 | 49.43484 | -2.60784 | 314 ft | 106 kts | 88° |
| 2026-04-20 18:31 | 49.43502 | -2.59983 | 320 ft | 34 kts | 88° |
| 2026-04-20 18:31 | 49.43488 | -2.59875 | 322 ft | 10 kts | 139° |
| 2026-04-20 18:31 | 49.43413 | -2.59860 | 324 ft | 9 kts | 178° |
| 2026-04-20 18:31 | 49.43356 | -2.59842 | 323 ft | 8 kts | 137° |
| 2026-04-20 18:32 | 49.43348 | -2.59759 | 325 ft | 9 kts | 82° |
| 2026-04-20 18:32 | 49.43319 | -2.59688 | 326 ft | 10 kts | 177° |
| 2026-04-20 18:32 | 49.43275 | -2.59687 | 326 ft | 5 kts | 178° |
| 2026-04-20 18:32 | 49.43257 | -2.59686 | 326 ft | 2 kts | 178° |
| 2026-04-20 18:33 | 49.43252 | -2.59685 | 326 ft | 0 kts | 178° |